EDMA

Augsburg Airport

Augsburg, Germany
TAF EDMA 221700Z 2218/2303 22004KT 9999 FEW015 BKN035 PROB30 TEMPO 2218/2220 4000 SHRA BKN012TCU BECMG 2221/2224 3000 BR TEMPO 2301/2303 1200 BCFG
Issued Valid From Valid To
Jul-22 @ 17:00 UTC
(3 hours ago)
Jul-22 @ 18:00 UTC
(2 hours ago)
Jul-23 @ 03:00 UTC
(in 7 hours)
Jul-22 @ 18:00 to Jul-22 @ 21:00
TAF EDMA 221700Z 2218/2303 22004KT 9999 FEW015 BKN035
Wind Visibility Clouds
220° at 4 knots 10,000+ meters
  • Few at 1,500' AGL
  • Broken at 3,500' AGL
Expired Click to View Jul-22 @ 18:00 to Jul-22 @ 20:00
PROB30 TEMPO 2218/2220 4000 SHRA BKN012TCU
Visibility Clouds Conditions
4,007 meters
  • Broken at 1,200' AGL
  • Rain
Becoming Jul-22 @ 21:00 to Jul-23 @ 03:00
BECMG 2221/2224 3000 BR
Wind Visibility Clouds Conditions
220° at 4 knots 2,993 meters
  • Few at 1,500' AGL
  • Broken at 3,500' AGL
  • Mist
Temporary Jul-23 @ 01:00 to Jul-23 @ 03:00
TEMPO 2301/2303 1200 BCFG
Visibility Conditions
1,207 meters
  • Patches of
  • Fog
TAF EDMA 221700Z 2218/2303 22004KT 9999 FEW015 BKN035 PROB30 TEMPO 2218/2220 4000 SHRA BKN012TCU BECMG 2221/2224 3000 BR TEMPO 2301/2303 1200 BCFG
Issued Jul-22 @ 17:00 UTC
(3 hours ago)
Valid From Jul-22 @ 18:00 UTC
(2 hours ago)
Valid To Jul-23 @ 03:00 UTC
(in 7 hours)
Jul-22 @ 18:00 - Jul-22 @ 21:00
Wind Visibility
220° at 4 knots 10,000+ meters
Clouds
  • Few at 1,500' AGL
  • Broken at 3,500' AGL
Jul-22 @ 18:00 - Jul-22 @ 20:00
Clouds
  • Broken at 1,200' AGL
Conditions
  • Rain
Becoming Jul-22 @ 21:00 - Jul-23 @ 03:00
Wind Visibility
220° at 4 knots 2,993 meters
Clouds
  • Few at 1,500' AGL
  • Broken at 3,500' AGL
Conditions
  • Mist
Temporary Jul-23 @ 01:00 - Jul-23 @ 03:00
Conditions
  • Patches of
  • Fog